sensor_id;sensor_type;location;lat;lon;timestamp;pressure;altitude;pressure_sealevel;temperature;humidity
6216;BME280;3141;49.234;9.326;2024-03-25T00:00:12;98867.75;;;9.56;70.41
6216;BME280;3141;49.234;9.326;2024-03-25T00:00:55;98869.72;;;9.62;70.16
6216;BME280;3141;49.234;9.326;2024-03-25T00:01:37;98874.00;;;9.55;70.44
6216;BME280;3141;49.234;9.326;2024-03-25T00:02:19;98869.25;;;9.50;70.74
6216;BME280;3141;49.234;9.326;2024-03-25T00:03:02;98868.75;;;9.47;70.29
6216;BME280;3141;49.234;9.326;2024-03-25T00:03:44;98865.31;;;9.54;70.60
6216;BME280;3141;49.234;9.326;2024-03-25T00:04:26;98864.63;;;9.44;70.58
6216;BME280;3141;49.234;9.326;2024-03-25T00:05:09;98867.78;;;9.40;70.60
6216;BME280;3141;49.234;9.326;2024-03-25T00:05:51;98861.84;;;9.38;70.73
6216;BME280;3141;49.234;9.326;2024-03-25T00:06:34;98867.75;;;9.48;70.71
6216;BME280;3141;49.234;9.326;2024-03-25T00:07:16;98868.63;;;9.40;71.04
6216;BME280;3141;49.234;9.326;2024-03-25T00:07:59;98861.72;;;9.23;71.10
6216;BME280;3141;49.234;9.326;2024-03-25T00:08:41;98865.19;;;9.15;71.69
6216;BME280;3141;49.234;9.326;2024-03-25T00:09:24;98861.88;;;9.21;71.59
6216;BME280;3141;49.234;9.326;2024-03-25T00:10:06;98867.50;;;9.26;71.28
6216;BME280;3141;49.234;9.326;2024-03-25T00:10:51;98865.19;;;9.31;71.04
6216;BME280;3141;49.234;9.326;2024-03-25T00:11:33;98858.22;;;9.30;71.04
6216;BME280;3141;49.234;9.326;2024-03-25T00:12:16;98865.19;;;9.31;71.06
6216;BME280;3141;49.234;9.326;2024-03-25T00:12:58;98863.00;;;9.43;70.76
6216;BME280;3141;49.234;9.326;2024-03-25T00:13:41;98868.75;;;9.55;70.31
6216;BME280;3141;49.234;9.326;2024-03-25T00:14:23;98863.47;;;9.55;70.01
6216;BME280;3141;49.234;9.326;2024-03-25T00:15:06;98862.66;;;9.46;70.48
6216;BME280;3141;49.234;9.326;2024-03-25T00:15:48;98860.56;;;9.33;70.87
6216;BME280;3141;49.234;9.326;2024-03-25T00:16:30;98863.84;;;9.27;70.97
6216;BME280;3141;49.234;9.326;2024-03-25T00:17:13;98861.84;;;9.38;70.55
6216;BME280;3141;49.234;9.326;2024-03-25T00:17:56;98867.63;;;9.41;70.47
6216;BME280;3141;49.234;9.326;2024-03-25T00:18:39;98867.16;;;9.29;70.77
6216;BME280;3141;49.234;9.326;2024-03-25T00:19:21;98863.22;;;9.17;71.33
6216;BME280;3141;49.234;9.326;2024-03-25T00:20:04;98861.03;;;9.29;71.29
6216;BME280;3141;49.234;9.326;2024-03-25T00:20:51;98865.16;;;9.40;70.58
6216;BME280;3141;49.234;9.326;2024-03-25T00:21:33;98863.00;;;9.43;70.56
6216;BME280;3141;49.234;9.326;2024-03-25T00:22:20;98861.84;;;9.46;70.46
6216;BME280;3141;49.234;9.326;2024-03-25T00:23:03;98871.13;;;9.33;71.08
6216;BME280;3141;49.234;9.326;2024-03-25T00:23:45;98863.50;;;9.30;70.74
6216;BME280;3141;49.234;9.326;2024-03-25T00:24:27;98865.31;;;9.38;71.16
6216;BME280;3141;49.234;9.326;2024-03-25T00:25:10;98869.28;;;9.34;70.90
6216;BME280;3141;49.234;9.326;2024-03-25T00:25:52;98875.06;;;9.21;71.51
6216;BME280;3141;49.234;9.326;2024-03-25T00:26:35;98864.84;;;9.26;71.06
6216;BME280;3141;49.234;9.326;2024-03-25T00:27:18;98868.47;;;9.25;71.30
6216;BME280;3141;49.234;9.326;2024-03-25T00:28:00;98865.50;;;9.28;71.14
6216;BME280;3141;49.234;9.326;2024-03-25T00:28:43;98866.34;;;9.21;71.61
6216;BME280;3141;49.234;9.326;2024-03-25T00:29:26;98868.94;;;9.37;70.86
6216;BME280;3141;49.234;9.326;2024-03-25T00:30:08;98877.22;;;9.26;70.81
6216;BME280;3141;49.234;9.326;2024-03-25T00:30:51;98868.16;;;9.12;71.41
6216;BME280;3141;49.234;9.326;2024-03-25T00:31:34;98875.75;;;9.15;71.39
6216;BME280;3141;49.234;9.326;2024-03-25T00:32:16;98873.44;;;9.12;71.53
6216;BME280;3141;49.234;9.326;2024-03-25T00:32:58;98872.44;;;9.13;71.38
6216;BME280;3141;49.234;9.326;2024-03-25T00:33:40;98871.59;;;9.13;71.49
6216;BME280;3141;49.234;9.326;2024-03-25T00:34:23;98871.13;;;9.17;71.58
6216;BME280;3141;49.234;9.326;2024-03-25T00:35:06;98875.91;;;9.14;71.26
6216;BME280;3141;49.234;9.326;2024-03-25T00:35:48;98870.81;;;8.88;72.45
6216;BME280;3141;49.234;9.326;2024-03-25T00:36:31;98870.16;;;9.02;72.12
6216;BME280;3141;49.234;9.326;2024-03-25T00:37:14;98861.25;;;9.19;71.41
6216;BME280;3141;49.234;9.326;2024-03-25T00:37:56;98869.13;;;9.11;71.48
6216;BME280;3141;49.234;9.326;2024-03-25T00:38:38;98867.16;;;8.97;72.01
6216;BME280;3141;49.234;9.326;2024-03-25T00:39:24;98865.38;;;8.90;72.44
6216;BME280;3141;49.234;9.326;2024-03-25T00:40:11;98863.38;;;9.00;72.21
6216;BME280;3141;49.234;9.326;2024-03-25T00:40:54;98868.66;;;9.08;71.77
6216;BME280;3141;49.234;9.326;2024-03-25T00:41:36;98872.94;;;9.09;71.94
6216;BME280;3141;49.234;9.326;2024-03-25T00:42:18;98866.81;;;9.16;71.35
6216;BME280;3141;49.234;9.326;2024-03-25T00:43:01;98867.16;;;9.13;71.37
6216;BME280;3141;49.234;9.326;2024-03-25T00:43:43;98866.50;;;9.19;71.25
6216;BME280;3141;49.234;9.326;2024-03-25T00:44:26;98859.59;;;9.26;71.23
6216;BME280;3141;49.234;9.326;2024-03-25T00:45:08;98858.59;;;9.03;71.41
6216;BME280;3141;49.234;9.326;2024-03-25T00:45:51;98868.16;;;9.04;71.82
6216;BME280;3141;49.234;9.326;2024-03-25T00:46:34;98864.53;;;9.05;72.05
6216;BME280;3141;49.234;9.326;2024-03-25T00:47:16;98871.47;;;9.14;71.49
6216;BME280;3141;49.234;9.326;2024-03-25T00:47:59;98862.88;;;9.20;71.55
6216;BME280;3141;49.234;9.326;2024-03-25T00:48:41;98865.50;;;9.04;71.82
6216;BME280;3141;49.234;9.326;2024-03-25T00:49:25;98869.78;;;9.13;71.90
6216;BME280;3141;49.234;9.326;2024-03-25T00:50:08;98859.94;;;9.07;72.03
6216;BME280;3141;49.234;9.326;2024-03-25T00:50:51;98858.28;;;9.14;71.70
6216;BME280;3141;49.234;9.326;2024-03-25T00:51:34;98866.50;;;9.19;71.48
6216;BME280;3141;49.234;9.326;2024-03-25T00:52:17;98860.41;;;9.19;71.38
6216;BME280;3141;49.234;9.326;2024-03-25T00:53:00;98861.38;;;9.26;71.22
6216;BME280;3141;49.234;9.326;2024-03-25T00:53:42;98865.50;;;9.28;71.17
6216;BME280;3141;49.234;9.326;2024-03-25T00:54:25;98864.69;;;9.20;71.23
6216;BME280;3141;49.234;9.326;2024-03-25T00:55:07;98861.56;;;9.16;71.21
6216;BME280;3141;49.234;9.326;2024-03-25T00:55:50;98862.22;;;9.18;71.29
6216;BME280;3141;49.234;9.326;2024-03-25T00:56:35;98869.78;;;9.21;71.31
6216;BME280;3141;49.234;9.326;2024-03-25T00:57:18;98862.22;;;9.18;71.65
6216;BME280;3141;49.234;9.326;2024-03-25T00:58:02;98871.78;;;9.11;71.47
6216;BME280;3141;49.234;9.326;2024-03-25T00:58:44;98871.28;;;9.00;71.79
6216;BME280;3141;49.234;9.326;2024-03-25T00:59:28;98868.81;;;8.98;72.19
6216;BME280;3141;49.234;9.326;2024-03-25T01:00:11;98870.97;;;9.03;72.12
6216;BME280;3141;49.234;9.326;2024-03-25T01:00:54;98872.78;;;9.10;72.11
6216;BME280;3141;49.234;9.326;2024-03-25T01:01:36;98874.75;;;9.08;72.03
6216;BME280;3141;49.234;9.326;2024-03-25T01:02:19;98882.00;;;9.14;71.94
6216;BME280;3141;49.234;9.326;2024-03-25T01:03:01;98876.06;;;9.20;71.57
6216;BME280;3141;49.234;9.326;2024-03-25T01:03:44;98874.88;;;9.39;70.89
6216;BME280;3141;49.234;9.326;2024-03-25T01:04:26;98882.47;;;9.42;70.97
6216;BME280;3141;49.234;9.326;2024-03-25T01:05:09;98874.88;;;9.47;70.82
6216;BME280;3141;49.234;9.326;2024-03-25T01:05:51;98875.38;;;9.34;70.52
6216;BME280;3141;49.234;9.326;2024-03-25T01:06:33;98876.53;;;9.40;70.57
6216;BME280;3141;49.234;9.326;2024-03-25T01:07:16;98879.69;;;9.27;71.08
6216;BME280;3141;49.234;9.326;2024-03-25T01:07:58;98882.00;;;9.22;71.35
6216;BME280;3141;49.234;9.326;2024-03-25T01:08:40;98878.03;;;9.10;71.77
6216;BME280;3141;49.234;9.326;2024-03-25T01:09:22;98873.75;;;9.17;71.41
6216;BME280;3141;49.234;9.326;2024-03-25T01:10:07;98873.06;;;9.23;71.50
6216;BME280;3141;49.234;9.326;2024-03-25T01:10:49;98882.47;;;9.34;71.20
6216;BME280;3141;49.234;9.326;2024-03-25T01:11:33;98879.66;;;9.35;70.97
6216;BME280;3141;49.234;9.326;2024-03-25T01:12:15;98872.41;;;9.38;70.61
6216;BME280;3141;49.234;9.326;2024-03-25T01:12:58;98882.97;;;9.29;70.94
6216;BME280;3141;49.234;9.326;2024-03-25T01:13:40;98877.38;;;9.32;70.91
6216;BME280;3141;49.234;9.326;2024-03-25T01:14:23;98874.22;;;9.29;71.16
6216;BME280;3141;49.234;9.326;2024-03-25T01:15:06;98877.53;;;9.15;71.31
6216;BME280;3141;49.234;9.326;2024-03-25T01:15:49;98875.59;;;9.09;71.82
6216;BME280;3141;49.234;9.326;2024-03-25T01:16:32;98876.22;;;9.03;71.96
6216;BME280;3141;49.234;9.326;2024-03-25T01:17:14;98880.34;;;9.05;71.92
6216;BME280;3141;49.234;9.326;2024-03-25T01:17:57;98877.72;;;8.89;72.29
6216;BME280;3141;49.234;9.326;2024-03-25T01:18:39;98864.53;;;8.97;72.51
6216;BME280;3141;49.234;9.326;2024-03-25T01:19:21;98876.38;;;9.09;72.21
6216;BME280;3141;49.234;9.326;2024-03-25T01:20:05;98872.09;;;9.16;71.62
6216;BME280;3141;49.234;9.326;2024-03-25T01:20:48;98882.97;;;9.21;71.50
6216;BME280;3141;49.234;9.326;2024-03-25T01:21:31;98878.84;;;9.27;71.56
6216;BME280;3141;49.234;9.326;2024-03-25T01:22:14;98873.91;;;9.08;72.03
6216;BME280;3141;49.234;9.326;2024-03-25T01:22:57;98885.13;;;9.18;71.50
6216;BME280;3141;49.234;9.326;2024-03-25T01:23:39;98877.56;;;8.99;72.15
6216;BME280;3141;49.234;9.326;2024-03-25T01:24:21;98874.44;;;9.03;72.35
6216;BME280;3141;49.234;9.326;2024-03-25T01:25:04;98878.22;;;9.09;71.71
6216;BME280;3141;49.234;9.326;2024-03-25T01:25:46;98877.53;;;9.15;71.58
6216;BME280;3141;49.234;9.326;2024-03-25T01:26:29;98883.63;;;9.23;71.42
6216;BME280;3141;49.234;9.326;2024-03-25T01:27:11;98879.69;;;9.27;71.23
6216;BME280;3141;49.234;9.326;2024-03-25T01:27:53;98875.75;;;9.15;71.73
6216;BME280;3141;49.234;9.326;2024-03-25T01:28:36;98878.72;;;9.12;71.42
6216;BME280;3141;49.234;9.326;2024-03-25T01:29:18;98880.34;;;9.13;71.52
6216;BME280;3141;49.234;9.326;2024-03-25T01:30:01;98877.91;;;9.04;72.04
6216;BME280;3141;49.234;9.326;2024-03-25T01:30:46;98888.91;;;9.15;71.75
6216;BME280;3141;49.234;9.326;2024-03-25T01:31:28;98883.31;;;9.18;71.67
6216;BME280;3141;49.234;9.326;2024-03-25T01:32:10;98881.84;;;9.00;72.06
6216;BME280;3141;49.234;9.326;2024-03-25T01:32:52;98879.03;;;9.01;72.23
6216;BME280;3141;49.234;9.326;2024-03-25T01:33:35;98880.84;;;8.93;72.41
6216;BME280;3141;49.234;9.326;2024-03-25T01:34:17;98875.06;;;8.97;72.27
6216;BME280;3141;49.234;9.326;2024-03-25T01:34:59;98875.75;;;8.91;72.62
6216;BME280;3141;49.234;9.326;2024-03-25T01:35:42;98875.25;;;8.88;72.82
6216;BME280;3141;49.234;9.326;2024-03-25T01:36:25;98867.00;;;8.91;72.42
6216;BME280;3141;49.234;9.326;2024-03-25T01:37:08;98875.09;;;8.81;72.77
6216;BME280;3141;49.234;9.326;2024-03-25T01:37:50;98875.06;;;8.89;72.72
6216;BME280;3141;49.234;9.326;2024-03-25T01:38:32;98868.50;;;9.01;72.29
6216;BME280;3141;49.234;9.326;2024-03-25T01:39:15;98873.75;;;9.01;72.43
6216;BME280;3141;49.234;9.326;2024-03-25T01:39:58;98874.56;;;8.94;72.33
6216;BME280;3141;49.234;9.326;2024-03-25T01:40:40;98869.78;;;8.73;73.05
6216;BME280;3141;49.234;9.326;2024-03-25T01:41:23;98871.94;;;8.70;73.33
6216;BME280;3141;49.234;9.326;2024-03-25T01:42:06;98868.81;;;8.82;72.94
6216;BME280;3141;49.234;9.326;2024-03-25T01:42:55;98880.03;;;8.84;72.64
6216;BME280;3141;49.234;9.326;2024-03-25T01:43:38;98869.50;;;8.76;73.08
6216;BME280;3141;49.234;9.326;2024-03-25T01:44:21;98872.44;;;8.65;73.54
6216;BME280;3141;49.234;9.326;2024-03-25T01:45:03;98879.03;;;8.77;73.51
6216;BME280;3141;49.234;9.326;2024-03-25T01:45:46;98876.38;;;8.85;72.93
6216;BME280;3141;49.234;9.326;2024-03-25T01:46:28;98873.44;;;8.88;72.88
6216;BME280;3141;49.234;9.326;2024-03-25T01:47:11;98878.34;;;8.75;73.04
6216;BME280;3141;49.234;9.326;2024-03-25T01:47:56;98871.28;;;8.76;73.21
6216;BME280;3141;49.234;9.326;2024-03-25T01:48:38;98863.38;;;8.76;73.36
6216;BME280;3141;49.234;9.326;2024-03-25T01:49:21;98869.66;;;8.83;73.00
6216;BME280;3141;49.234;9.326;2024-03-25T01:50:04;98870.97;;;8.71;73.09
6216;BME280;3141;49.234;9.326;2024-03-25T01:50:46;98875.41;;;8.70;73.27
6216;BME280;3141;49.234;9.326;2024-03-25T01:51:29;98870.78;;;8.80;72.91
6216;BME280;3141;49.234;9.326;2024-03-25T01:52:11;98875.06;;;8.73;73.25
6216;BME280;3141;49.234;9.326;2024-03-25T01:52:54;98869.63;;;8.67;73.40
6216;BME280;3141;49.234;9.326;2024-03-25T01:53:36;98871.59;;;8.65;73.65
6216;BME280;3141;49.234;9.326;2024-03-25T01:54:19;98875.41;;;8.70;73.60
6216;BME280;3141;49.234;9.326;2024-03-25T01:55:01;98875.06;;;8.73;73.40
6216;BME280;3141;49.234;9.326;2024-03-25T01:55:46;98876.72;;;8.82;73.29
6216;BME280;3141;49.234;9.326;2024-03-25T01:56:31;98874.09;;;8.82;72.71
6216;BME280;3141;49.234;9.326;2024-03-25T01:57:15;98876.06;;;8.80;73.10
6216;BME280;3141;49.234;9.326;2024-03-25T01:57:58;98869.47;;;8.84;72.63
6216;BME280;3141;49.234;9.326;2024-03-25T01:58:40;98870.47;;;8.83;72.76
6216;BME280;3141;49.234;9.326;2024-03-25T01:59:23;98862.88;;;8.72;73.38
6216;BME280;3141;49.234;9.326;2024-03-25T02:00:06;98867.03;;;8.75;73.29
6216;BME280;3141;49.234;9.326;2024-03-25T02:00:49;98867.53;;;8.78;73.08
6216;BME280;3141;49.234;9.326;2024-03-25T02:01:32;98866.31;;;8.65;73.20
6216;BME280;3141;49.234;9.326;2024-03-25T02:02:14;98872.09;;;8.60;73.42
6216;BME280;3141;49.234;9.326;2024-03-25T02:02:57;98854.97;;;8.40;74.43
6216;BME280;3141;49.234;9.326;2024-03-25T02:03:42;98866.13;;;8.42;74.69
6216;BME280;3141;49.234;9.326;2024-03-25T02:04:25;98863.03;;;8.47;74.60
6216;BME280;3141;49.234;9.326;2024-03-25T02:05:07;98866.00;;;8.52;74.40
6216;BME280;3141;49.234;9.326;2024-03-25T02:05:52;98859.22;;;8.41;74.81
6216;BME280;3141;49.234;9.326;2024-03-25T02:06:38;98872.06;;;8.44;74.53
6216;BME280;3141;49.234;9.326;2024-03-25T02:07:23;98868.13;;;8.48;74.45
6216;BME280;3141;49.234;9.326;2024-03-25T02:08:07;98879.00;;;8.53;74.48
6216;BME280;3141;49.234;9.326;2024-03-25T02:08:50;98871.91;;;8.46;74.76
6216;BME280;3141;49.234;9.326;2024-03-25T02:09:33;98870.75;;;8.40;74.75
6216;BME280;3141;49.234;9.326;2024-03-25T02:10:15;98874.03;;;8.42;74.90
6216;BME280;3141;49.234;9.326;2024-03-25T02:10:58;98875.03;;;8.41;75.13
6216;BME280;3141;49.234;9.326;2024-03-25T02:11:42;98869.09;;;8.31;75.35
6216;BME280;3141;49.234;9.326;2024-03-25T02:12:25;98865.44;;;8.32;75.52
6216;BME280;3141;49.234;9.326;2024-03-25T02:13:08;98870.09;;;8.38;74.86
6216;BME280;3141;49.234;9.326;2024-03-25T02:13:51;98869.25;;;8.38;75.04
6216;BME280;3141;49.234;9.326;2024-03-25T02:14:33;98865.50;;;8.40;75.11
6216;BME280;3141;49.234;9.326;2024-03-25T02:15:15;98873.41;;;8.40;74.97
6216;BME280;3141;49.234;9.326;2024-03-25T02:15:58;98871.72;;;8.39;75.16
6216;BME280;3141;49.234;9.326;2024-03-25T02:16:41;98873.06;;;8.35;75.56
6216;BME280;3141;49.234;9.326;2024-03-25T02:17:23;98865.16;;;8.35;75.18
6216;BME280;3141;49.234;9.326;2024-03-25T02:18:05;98871.72;;;8.39;75.14
6216;BME280;3141;49.234;9.326;2024-03-25T02:18:48;98871.75;;;8.47;74.86
6216;BME280;3141;49.234;9.326;2024-03-25T02:19:31;98871.72;;;8.31;75.41
6216;BME280;3141;49.234;9.326;2024-03-25T02:20:13;98868.59;;;8.36;75.44
6216;BME280;3141;49.234;9.326;2024-03-25T02:20:58;98876.19;;;8.39;75.48
6216;BME280;3141;49.234;9.326;2024-03-25T02:21:41;98872.38;;;8.33;75.44
6216;BME280;3141;49.234;9.326;2024-03-25T02:22:23;98876.50;;;8.36;75.33
6216;BME280;3141;49.234;9.326;2024-03-25T02:23:05;98869.94;;;8.40;75.20
6216;BME280;3141;49.234;9.326;2024-03-25T02:23:48;98872.41;;;8.49;74.78
6216;BME280;3141;49.234;9.326;2024-03-25T02:24:33;98872.91;;;8.45;74.80
6216;BME280;3141;49.234;9.326;2024-03-25T02:25:16;98877.00;;;8.39;75.00
6216;BME280;3141;49.234;9.326;2024-03-25T02:25:59;98873.69;;;8.37;75.05
6216;BME280;3141;49.234;9.326;2024-03-25T02:26:41;98873.06;;;8.35;75.45
6216;BME280;3141;49.234;9.326;2024-03-25T02:27:24;98872.41;;;8.41;75.24
6216;BME280;3141;49.234;9.326;2024-03-25T02:28:06;98879.34;;;8.50;74.92
6216;BME280;3141;49.234;9.326;2024-03-25T02:28:49;98873.06;;;8.43;74.98
6216;BME280;3141;49.234;9.326;2024-03-25T02:29:34;98878.66;;;8.40;75.29
6216;BME280;3141;49.234;9.326;2024-03-25T02:30:17;98878.97;;;8.37;75.14
6216;BME280;3141;49.234;9.326;2024-03-25T02:30:59;98871.88;;;8.30;75.50
6216;BME280;3141;49.234;9.326;2024-03-25T02:31:42;98876.28;;;8.21;75.85
6216;BME280;3141;49.234;9.326;2024-03-25T02:32:24;98872.03;;;8.28;75.64
6216;BME280;3141;49.234;9.326;2024-03-25T02:33:06;98871.69;;;8.23;75.95
6216;BME280;3141;49.234;9.326;2024-03-25T02:33:48;98875.69;;;8.35;75.75
6216;BME280;3141;49.234;9.326;2024-03-25T02:34:31;98873.56;;;8.39;75.41
6216;BME280;3141;49.234;9.326;2024-03-25T02:35:15;98878.00;;;8.38;75.33
6216;BME280;3141;49.234;9.326;2024-03-25T02:35:59;98876.50;;;8.36;75.27
6216;BME280;3141;49.234;9.326;2024-03-25T02:36:41;98871.72;;;8.39;75.20
6216;BME280;3141;49.234;9.326;2024-03-25T02:37:25;98877.66;;;8.33;75.31
6216;BME280;3141;49.234;9.326;2024-03-25T02:38:08;98876.56;;;8.18;75.91
6216;BME280;3141;49.234;9.326;2024-03-25T02:38:51;98870.16;;;8.12;76.26
6216;BME280;3141;49.234;9.326;2024-03-25T02:39:34;98873.75;;;8.11;76.39
6216;BME280;3141;49.234;9.326;2024-03-25T02:40:19;98878.91;;;8.21;75.98
6216;BME280;3141;49.234;9.326;2024-03-25T02:41:02;98879.56;;;8.23;75.98
6216;BME280;3141;49.234;9.326;2024-03-25T02:41:46;98872.97;;;8.19;76.18
6216;BME280;3141;49.234;9.326;2024-03-25T02:42:28;98876.66;;;8.26;75.84
6216;BME280;3141;49.234;9.326;2024-03-25T02:43:11;98877.25;;;8.20;75.98
6216;BME280;3141;49.234;9.326;2024-03-25T02:43:53;98878.22;;;8.11;76.55
6216;BME280;3141;49.234;9.326;2024-03-25T02:44:36;98876.91;;;8.15;76.17
6216;BME280;3141;49.234;9.326;2024-03-25T02:45:19;98877.25;;;8.20;76.31
6216;BME280;3141;49.234;9.326;2024-03-25T02:46:01;98879.94;;;8.28;75.84
6216;BME280;3141;49.234;9.326;2024-03-25T02:46:44;98880.06;;;8.27;75.83
6216;BME280;3141;49.234;9.326;2024-03-25T02:47:26;98874.44;;;8.13;76.14
6216;BME280;3141;49.234;9.326;2024-03-25T02:48:08;98881.19;;;8.16;76.36
6216;BME280;3141;49.234;9.326;2024-03-25T02:48:51;98875.53;;;8.03;76.65
6216;BME280;3141;49.234;9.326;2024-03-25T02:49:33;98882.84;;;8.17;76.39
6216;BME280;3141;49.234;9.326;2024-03-25T02:50:16;98876.81;;;8.25;75.95
6216;BME280;3141;49.234;9.326;2024-03-25T02:50:59;98877.00;;;8.31;75.56
6216;BME280;3141;49.234;9.326;2024-03-25T02:51:41;98877.81;;;8.32;75.59
6216;BME280;3141;49.234;9.326;2024-03-25T02:52:23;98877.16;;;8.30;75.57
6216;BME280;3141;49.234;9.326;2024-03-25T02:53:06;98876.00;;;8.32;75.50
6216;BME280;3141;49.234;9.326;2024-03-25T02:53:48;98881.25;;;8.24;75.33
6216;BME280;3141;49.234;9.326;2024-03-25T02:54:30;98886.22;;;8.35;75.45
6216;BME280;3141;49.234;9.326;2024-03-25T02:55:13;98875.81;;;8.34;75.16
6216;BME280;3141;49.234;9.326;2024-03-25T02:55:55;98879.72;;;8.21;75.63
6216;BME280;3141;49.234;9.326;2024-03-25T02:56:40;98876.94;;;8.23;75.70
6216;BME280;3141;49.234;9.326;2024-03-25T02:57:22;98883.38;;;8.29;75.57
6216;BME280;3141;49.234;9.326;2024-03-25T02:58:04;98884.56;;;8.34;75.26
6216;BME280;3141;49.234;9.326;2024-03-25T02:58:46;98882.56;;;8.28;75.17
6216;BME280;3141;49.234;9.326;2024-03-25T02:59:29;98881.50;;;8.13;75.84
6216;BME280;3141;49.234;9.326;2024-03-25T03:00:12;98884.16;;;8.21;75.78
6216;BME280;3141;49.234;9.326;2024-03-25T03:00:55;98875.94;;;8.16;75.85
6216;BME280;3141;49.234;9.326;2024-03-25T03:01:37;98878.91;;;8.21;76.07
6216;BME280;3141;49.234;9.326;2024-03-25T03:02:19;98885.50;;;8.25;75.32
6216;BME280;3141;49.234;9.326;2024-03-25T03:03:03;98888.34;;;8.32;75.07
6216;BME280;3141;49.234;9.326;2024-03-25T03:03:45;98881.06;;;8.26;75.40
6216;BME280;3141;49.234;9.326;2024-03-25T03:04:27;98877.91;;;8.22;75.26
6216;BME280;3141;49.234;9.326;2024-03-25T03:05:10;98882.84;;;8.17;75.60
6216;BME280;3141;49.234;9.326;2024-03-25T03:05:52;98884.16;;;8.21;75.48
6216;BME280;3141;49.234;9.326;2024-03-25T03:06:36;98876.09;;;8.23;75.17
6216;BME280;3141;49.234;9.326;2024-03-25T03:07:18;98881.25;;;8.24;75.05
6216;BME280;3141;49.234;9.326;2024-03-25T03:08:00;98883.88;;;8.24;75.36
6216;BME280;3141;49.234;9.326;2024-03-25T03:08:43;98876.81;;;8.25;75.35
6216;BME280;3141;49.234;9.326;2024-03-25T03:09:25;98882.34;;;8.21;75.10
6216;BME280;3141;49.234;9.326;2024-03-25T03:10:07;98887.25;;;8.16;75.27
6216;BME280;3141;49.234;9.326;2024-03-25T03:10:50;98877.91;;;8.14;75.63
6216;BME280;3141;49.234;9.326;2024-03-25T03:11:32;98879.50;;;8.07;76.04
6216;BME280;3141;49.234;9.326;2024-03-25T03:12:14;98876.38;;;8.11;75.54
6216;BME280;3141;49.234;9.326;2024-03-25T03:12:57;98878.22;;;8.11;75.70
6216;BME280;3141;49.234;9.326;2024-03-25T03:13:39;98878.22;;;8.11;75.57
6216;BME280;3141;49.234;9.326;2024-03-25T03:14:21;98885.78;;;8.14;75.42
6216;BME280;3141;49.234;9.326;2024-03-25T03:15:04;98877.56;;;8.17;75.24
6216;BME280;3141;49.234;9.326;2024-03-25T03:15:47;98883.97;;;8.14;75.39
6216;BME280;3141;49.234;9.326;2024-03-25T03:16:30;98883.31;;;8.12;75.31
6216;BME280;3141;49.234;9.326;2024-03-25T03:17:12;98886.75;;;8.13;75.30
6216;BME280;3141;49.234;9.326;2024-03-25T03:17:55;98886.41;;;8.08;75.46
6216;BME280;3141;49.234;9.326;2024-03-25T03:18:37;98881.31;;;8.06;75.58
6216;BME280;3141;49.234;9.326;2024-03-25T03:19:29;98883.44;;;8.03;75.79
6216;BME280;3141;49.234;9.326;2024-03-25T03:20:11;98886.72;;;7.97;75.75
6216;BME280;3141;49.234;9.326;2024-03-25T03:20:54;98884.88;;;7.97;76.02
6216;BME280;3141;49.234;9.326;2024-03-25T03:21:39;98878.66;;;7.98;76.18
6216;BME280;3141;49.234;9.326;2024-03-25T03:22:21;98882.75;;;8.01;75.89
6216;BME280;3141;49.234;9.326;2024-03-25T03:23:04;98878.31;;;7.93;75.78
6216;BME280;3141;49.234;9.326;2024-03-25T03:23:46;98878.47;;;7.92;75.99
6216;BME280;3141;49.234;9.326;2024-03-25T03:24:28;98875.63;;;7.85;76.53
6216;BME280;3141;49.234;9.326;2024-03-25T03:25:11;98878.25;;;7.85;76.08
6216;BME280;3141;49.234;9.326;2024-03-25T03:25:53;98881.19;;;7.74;76.67
6216;BME280;3141;49.234;9.326;2024-03-25T03:26:35;98875.25;;;7.72;77.18
6216;BME280;3141;49.234;9.326;2024-03-25T03:27:18;98879.84;;;7.70;77.02
6216;BME280;3141;49.234;9.326;2024-03-25T03:28:00;98884.50;;;7.76;76.75
6216;BME280;3141;49.234;9.326;2024-03-25T03:28:42;98886.44;;;7.74;76.45
6216;BME280;3141;49.234;9.326;2024-03-25T03:29:25;98881.00;;;7.68;76.67
6216;BME280;3141;49.234;9.326;2024-03-25T03:30:07;98879.81;;;7.62;76.94
6216;BME280;3141;49.234;9.326;2024-03-25T03:30:49;98881.59;;;7.62;77.34
6216;BME280;3141;49.234;9.326;2024-03-25T03:31:32;98881.41;;;7.55;77.56
6216;BME280;3141;49.234;9.326;2024-03-25T03:32:15;98881.66;;;7.44;77.54
6216;BME280;3141;49.234;9.326;2024-03-25T03:32:57;98884.09;;;7.38;77.85
6216;BME280;3141;49.234;9.326;2024-03-25T03:33:39;98882.47;;;7.37;78.08
6216;BME280;3141;49.234;9.326;2024-03-25T03:34:22;98877.03;;;7.38;77.98
6216;BME280;3141;49.234;9.326;2024-03-25T03:35:04;98880.47;;;7.39;77.97
6216;BME280;3141;49.234;9.326;2024-03-25T03:35:47;98870.94;;;7.38;77.54
6216;BME280;3141;49.234;9.326;2024-03-25T03:36:30;98875.34;;;7.29;78.12
6216;BME280;3141;49.234;9.326;2024-03-25T03:37:12;98871.06;;;7.28;77.81
6216;BME280;3141;49.234;9.326;2024-03-25T03:37:54;98879.44;;;7.32;78.13
6216;BME280;3141;49.234;9.326;2024-03-25T03:38:36;98874.19;;;7.32;77.73
6216;BME280;3141;49.234;9.326;2024-03-25T03:39:19;98880.06;;;7.26;77.81
6216;BME280;3141;49.234;9.326;2024-03-25T03:40:02;98873.69;;;7.28;77.72
6216;BME280;3141;49.234;9.326;2024-03-25T03:41:01;98870.69;;;7.23;77.95
6216;BME280;3141;49.234;9.326;2024-03-25T03:41:43;98875.81;;;7.25;78.25
6216;BME280;3141;49.234;9.326;2024-03-25T03:42:25;98869.56;;;7.26;78.00
6216;BME280;3141;49.234;9.326;2024-03-25T03:43:08;98875.13;;;7.23;77.71
6216;BME280;3141;49.234;9.326;2024-03-25T03:43:50;98870.16;;;7.20;78.16
6216;BME280;3141;49.234;9.326;2024-03-25T03:44:32;98872.78;;;7.20;78.00
6216;BME280;3141;49.234;9.326;2024-03-25T03:45:15;98876.41;;;7.19;78.22
6216;BME280;3141;49.234;9.326;2024-03-25T03:45:57;98875.94;;;7.23;78.27
6216;BME280;3141;49.234;9.326;2024-03-25T03:46:39;98874.97;;;7.24;77.95
6216;BME280;3141;49.234;9.326;2024-03-25T03:47:22;98878.03;;;7.20;78.01
6216;BME280;3141;49.234;9.326;2024-03-25T03:48:05;98876.72;;;7.16;78.07
6216;BME280;3141;49.234;9.326;2024-03-25T03:48:47;98878.88;;;7.20;78.16
6216;BME280;3141;49.234;9.326;2024-03-25T03:49:29;98873.47;;;7.22;78.25
6216;BME280;3141;49.234;9.326;2024-03-25T03:50:12;98879.56;;;7.22;77.65
6216;BME280;3141;49.234;9.326;2024-03-25T03:50:54;98872.66;;;7.21;77.56
6216;BME280;3141;49.234;9.326;2024-03-25T03:51:37;98875.06;;;7.15;78.02
6216;BME280;3141;49.234;9.326;2024-03-25T03:52:19;98877.69;;;7.15;78.25
6216;BME280;3141;49.234;9.326;2024-03-25T03:53:02;98879.66;;;7.13;78.08
6216;BME280;3141;49.234;9.326;2024-03-25T03:53:44;98874.69;;;7.10;78.54
6216;BME280;3141;49.234;9.326;2024-03-25T03:54:26;98872.44;;;7.15;78.31
6216;BME280;3141;49.234;9.326;2024-03-25T03:55:09;98870.13;;;7.12;78.18
6216;BME280;3141;49.234;9.326;2024-03-25T03:55:54;98877.69;;;7.15;78.14